createdAt,value
2023-06-17T00:00:57.514Z,43.18
2023-06-17T00:01:57.514Z,43.21
2023-06-17T00:02:57.571Z,43.20
2023-06-17T00:03:57.565Z,43.18
2023-06-17T00:04:57.551Z,43.23
2023-06-17T00:05:57.577Z,43.18
2023-06-17T00:06:57.539Z,43.18
2023-06-17T00:07:57.606Z,43.17
2023-06-17T00:08:57.620Z,43.20
2023-06-17T00:09:57.627Z,43.13
2023-06-17T00:10:57.606Z,43.11
2023-06-17T00:11:57.634Z,43.17
2023-06-17T00:12:57.653Z,43.13
2023-06-17T00:13:57.644Z,43.17
2023-06-17T00:14:57.651Z,43.11
2023-06-17T00:15:57.694Z,43.13
2023-06-17T00:16:57.680Z,43.11
2023-06-17T00:17:57.798Z,43.12
2023-06-17T00:18:57.689Z,43.12
2023-06-17T00:19:57.696Z,43.09
2023-06-17T00:20:57.700Z,43.11
2023-06-17T00:21:57.720Z,43.09
2023-06-17T00:22:57.726Z,43.16
2023-06-17T00:23:57.768Z,43.05
2023-06-17T00:24:57.725Z,43.07
2023-06-17T00:25:57.740Z,43.09
2023-06-17T00:26:57.744Z,43.10
2023-06-17T00:27:57.775Z,43.03
2023-06-17T00:28:57.755Z,43.06
2023-06-17T00:29:57.766Z,43.08
2023-06-17T00:30:57.803Z,43.02
2023-06-17T00:31:57.813Z,43.04
2023-06-17T00:32:57.890Z,43.08
2023-06-17T00:33:57.811Z,43.05
2023-06-17T00:34:57.813Z,43.04
2023-06-17T00:35:57.864Z,43.04
2023-06-17T00:36:57.863Z,43.04
2023-06-17T00:37:57.874Z,43.04
2023-06-17T00:38:57.890Z,43.05
2023-06-17T00:39:57.933Z,42.99
2023-06-17T00:40:57.892Z,43.04
2023-06-17T00:41:57.930Z,43.00
2023-06-17T00:42:57.957Z,43.00
2023-06-17T00:43:57.903Z,42.99
2023-06-17T00:44:57.918Z,42.96
2023-06-17T00:45:57.964Z,42.99
2023-06-17T00:46:57.949Z,42.98
2023-06-17T00:47:57.976Z,42.99
2023-06-17T00:48:57.997Z,42.99
2023-06-17T00:49:57.954Z,43.02
2023-06-17T00:50:57.967Z,42.99
2023-06-17T00:52:15.498Z,42.99
2023-06-17T00:52:58.977Z,42.96
2023-06-17T00:53:57.959Z,42.99
2023-06-17T00:54:57.977Z,42.98
2023-06-17T00:55:57.984Z,42.90
2023-06-17T00:56:57.975Z,42.92
2023-06-17T00:57:57.954Z,42.92
2023-06-17T00:58:57.966Z,42.96
2023-06-17T00:59:57.932Z,42.95
2023-06-17T01:00:57.929Z,42.95
2023-06-17T01:01:57.901Z,42.92
2023-06-17T01:02:58.352Z,42.92
2023-06-17T01:03:57.952Z,42.90
2023-06-17T01:04:57.905Z,42.86
2023-06-17T01:05:57.890Z,42.92
2023-06-17T01:06:57.877Z,42.94
2023-06-17T01:07:57.926Z,42.96
2023-06-17T01:08:57.867Z,42.90
2023-06-17T01:09:57.888Z,42.90
2023-06-17T01:10:59.071Z,42.92
2023-06-17T01:11:57.871Z,42.90
2023-06-17T01:12:57.869Z,42.92
2023-06-17T01:13:57.826Z,42.89
2023-06-17T01:14:57.820Z,42.90
2023-06-17T01:15:57.858Z,42.89
2023-06-17T01:16:57.815Z,42.87
2023-06-17T01:17:57.857Z,42.83
2023-06-17T01:18:57.807Z,42.83
2023-06-17T01:19:57.811Z,42.88
2023-06-17T01:20:57.816Z,42.84
2023-06-17T01:21:57.840Z,42.82
2023-06-17T01:22:57.779Z,42.86
2023-06-17T01:23:57.786Z,42.85
2023-06-17T01:24:57.771Z,42.84
2023-06-17T01:25:57.732Z,42.87
2023-06-17T01:26:57.726Z,42.83
2023-06-17T01:27:57.706Z,42.84
2023-06-17T01:28:57.727Z,42.84
2023-06-17T01:29:57.703Z,42.80
2023-06-17T01:30:57.745Z,42.85
2023-06-17T01:31:57.729Z,42.77
2023-06-17T01:32:57.780Z,42.83
2023-06-17T01:33:57.706Z,42.83
2023-06-17T01:34:57.725Z,42.83
2023-06-17T01:35:57.714Z,42.77
2023-06-17T01:36:57.729Z,42.77
2023-06-17T01:37:57.730Z,42.77
2023-06-17T01:38:57.741Z,42.80
2023-06-17T01:39:57.738Z,42.80
2023-06-17T01:40:57.769Z,42.73
2023-06-17T01:41:57.749Z,42.77
2023-06-17T01:42:57.793Z,42.77
2023-06-17T01:43:57.784Z,42.76
2023-06-17T01:44:57.767Z,42.74
2023-06-17T01:45:57.822Z,42.73
2023-06-17T01:46:57.837Z,42.73
2023-06-17T01:47:57.830Z,42.70
2023-06-17T01:48:57.802Z,42.73
2023-06-17T01:49:57.819Z,42.73
2023-06-17T01:50:57.831Z,42.74
2023-06-17T01:51:57.814Z,42.71
2023-06-17T01:52:57.828Z,42.71
2023-06-17T01:53:57.836Z,42.65
2023-06-17T01:54:57.845Z,42.68
2023-06-17T01:55:57.819Z,42.70
2023-06-17T01:56:57.815Z,42.71
2023-06-17T01:57:57.856Z,42.68
2023-06-17T01:58:57.849Z,42.65
2023-06-17T01:59:57.854Z,42.71
2023-06-17T02:00:57.842Z,42.71
2023-06-17T02:01:57.896Z,42.68
2023-06-17T02:02:57.976Z,42.65
2023-06-17T02:03:58.966Z,42.66
2023-06-17T02:04:57.883Z,42.67
2023-06-17T02:05:57.973Z,42.62
2023-06-17T02:06:57.895Z,42.63
2023-06-17T02:07:57.941Z,42.64
2023-06-17T02:08:57.944Z,42.64
2023-06-17T02:09:57.952Z,42.61
2023-06-17T02:10:57.956Z,42.58
2023-06-17T02:11:57.964Z,42.60
2023-06-17T02:12:57.973Z,42.62
2023-06-17T02:13:57.951Z,42.59
2023-06-17T02:14:57.995Z,42.59
2023-06-17T02:15:58.015Z,42.60
2023-06-17T02:16:57.966Z,42.59
2023-06-17T02:17:58.035Z,42.55
2023-06-17T02:18:58.010Z,42.57
2023-06-17T02:19:57.988Z,42.55
2023-06-17T02:20:58.029Z,42.57
2023-06-17T02:21:58.028Z,42.59
2023-06-17T02:22:58.050Z,42.55
2023-06-17T02:23:58.098Z,42.55
2023-06-17T02:24:58.047Z,42.58
2023-06-17T02:25:58.054Z,42.55
2023-06-17T02:26:58.034Z,42.57
2023-06-17T02:27:58.074Z,42.53
2023-06-17T02:28:58.086Z,42.55
2023-06-17T02:29:58.055Z,42.57
2023-06-17T02:30:58.114Z,42.55
2023-06-17T02:31:58.104Z,42.53
2023-06-17T02:32:58.129Z,42.52
2023-06-17T02:33:58.107Z,42.48
2023-06-17T02:34:58.097Z,42.52
2023-06-17T02:35:58.135Z,42.53
2023-06-17T02:36:58.164Z,42.53
2023-06-17T02:37:58.202Z,42.47
2023-06-17T02:38:58.115Z,42.53
2023-06-17T02:39:58.137Z,42.47
2023-06-17T02:40:58.165Z,42.48
2023-06-17T02:41:58.169Z,42.52
2023-06-17T02:42:58.186Z,42.48
2023-06-17T02:43:58.183Z,42.45
2023-06-17T02:44:58.191Z,42.49
2023-06-17T02:45:58.197Z,42.46
2023-06-17T02:46:58.236Z,42.45
2023-06-17T02:47:58.253Z,42.46
2023-06-17T02:48:58.231Z,42.52
2023-06-17T02:49:58.238Z,42.46
2023-06-17T02:50:58.226Z,42.45
2023-06-17T02:51:58.233Z,42.43
2023-06-17T02:52:58.243Z,42.45
2023-06-17T02:53:58.269Z,42.45
2023-06-17T02:54:58.258Z,42.42
2023-06-17T02:55:58.274Z,42.43
2023-06-17T02:56:58.267Z,42.41
2023-06-17T02:57:58.279Z,42.38
2023-06-17T02:58:58.307Z,42.43
2023-06-17T02:59:58.313Z,42.39
2023-06-17T03:00:58.362Z,42.36
2023-06-17T03:01:58.326Z,42.39
2023-06-17T03:02:58.378Z,42.37
2023-06-17T03:03:58.321Z,42.42
2023-06-17T03:04:58.334Z,42.40
2023-06-17T03:05:58.363Z,42.39
2023-06-17T03:06:58.361Z,42.39
2023-06-17T03:07:58.345Z,42.36
2023-06-17T03:08:58.360Z,42.37
2023-06-17T03:09:58.380Z,42.35
2023-06-17T03:10:58.379Z,42.35
2023-06-17T03:11:58.420Z,42.36
2023-06-17T03:12:58.415Z,42.34
2023-06-17T03:13:58.391Z,42.33
2023-06-17T03:14:58.456Z,42.31
2023-06-17T03:15:58.455Z,42.30
2023-06-17T03:16:58.486Z,42.31
2023-06-17T03:17:58.504Z,42.33
2023-06-17T03:18:58.443Z,42.31
2023-06-17T03:19:58.459Z,42.28
2023-06-17T03:20:58.493Z,42.31
2023-06-17T03:21:58.489Z,42.26
2023-06-17T03:22:58.509Z,42.31
2023-06-17T03:23:58.540Z,42.31
2023-06-17T03:24:58.514Z,42.27
2023-06-17T03:25:58.505Z,42.31
2023-06-17T03:26:58.552Z,42.24
2023-06-17T03:27:58.550Z,42.30
2023-06-17T03:28:58.543Z,42.28
2023-06-17T03:29:58.577Z,42.28
2023-06-17T03:30:58.639Z,42.27
2023-06-17T03:31:58.824Z,42.24
2023-06-17T03:32:58.645Z,42.27
2023-06-17T03:33:58.595Z,42.30
2023-06-17T03:34:58.623Z,42.25
2023-06-17T03:35:58.619Z,42.22
2023-06-17T03:36:58.660Z,42.24
2023-06-17T03:37:58.716Z,42.25
2023-06-17T03:38:58.713Z,42.22
2023-06-17T03:39:58.715Z,42.19
2023-06-17T03:40:58.737Z,42.21
2023-06-17T03:41:58.763Z,42.21
2023-06-17T03:42:58.809Z,42.21
2023-06-17T03:43:58.774Z,42.20
2023-06-17T03:44:58.801Z,42.17
2023-06-17T03:45:58.828Z,42.21
2023-06-17T03:46:58.792Z,42.21
2023-06-17T03:47:58.870Z,42.21
2023-06-17T03:48:58.856Z,42.23
2023-06-17T03:49:58.863Z,42.18
2023-06-17T03:50:58.869Z,42.17
2023-06-17T03:51:58.862Z,42.20
2023-06-17T03:52:58.876Z,42.20
2023-06-17T03:53:58.890Z,42.18
2023-06-17T03:54:58.954Z,42.15
2023-06-17T03:55:58.943Z,42.17
2023-06-17T03:56:58.945Z,42.13
2023-06-17T03:57:58.964Z,42.15
2023-06-17T03:58:58.941Z,42.17
2023-06-17T03:59:58.981Z,42.18
2023-06-17T04:00:58.983Z,42.14
2023-06-17T04:01:59.021Z,42.14
2023-06-17T04:02:59.183Z,42.15
2023-06-17T04:03:59.122Z,42.12
2023-06-17T04:04:59.006Z,42.12
2023-06-17T04:05:59.027Z,42.08
2023-06-17T04:06:59.077Z,42.09
2023-06-17T04:07:59.081Z,42.11
2023-06-17T04:08:59.088Z,42.12
2023-06-17T04:10:07.269Z,42.08
2023-06-17T04:11:00.097Z,42.05
2023-06-17T04:11:59.070Z,42.06
2023-06-17T04:12:59.089Z,42.08
2023-06-17T04:13:59.063Z,42.08
2023-06-17T04:14:59.067Z,42.06
2023-06-17T04:15:59.027Z,42.11
2023-06-17T04:16:59.041Z,42.05
2023-06-17T04:17:59.085Z,42.03
2023-06-17T04:18:59.038Z,41.99
2023-06-17T04:19:59.032Z,42.03
2023-06-17T04:20:59.039Z,42.06
2023-06-17T04:21:59.010Z,41.99
2023-06-17T04:22:59.013Z,42.02
2023-06-17T04:23:59.034Z,42.04
2023-06-17T04:24:58.994Z,42.05
2023-06-17T04:25:58.972Z,42.04
2023-06-17T04:26:58.983Z,42.03
2023-06-17T04:27:58.973Z,42.02
2023-06-17T04:28:58.957Z,42.03
2023-06-17T04:29:58.959Z,42.00
2023-06-17T04:30:58.987Z,42.05
2023-06-17T04:31:58.958Z,42.00
2023-06-17T04:32:58.927Z,41.99
2023-06-17T04:33:58.932Z,41.97
2023-06-17T04:34:58.918Z,42.00
2023-06-17T04:35:58.896Z,41.95
2023-06-17T04:36:58.922Z,41.99
2023-06-17T04:37:58.926Z,41.96
2023-06-17T04:38:58.890Z,41.99
2023-06-17T04:39:58.900Z,41.96
2023-06-17T04:40:58.859Z,41.94
2023-06-17T04:41:58.878Z,41.94
2023-06-17T04:42:58.925Z,42.07
2023-06-17T04:43:58.896Z,42.20
2023-06-17T04:44:58.957Z,42.22
2023-06-17T04:45:58.985Z,42.03
2023-06-17T04:46:59.002Z,42.07
2023-06-17T04:47:59.095Z,42.00
2023-06-17T04:48:58.995Z,42.01
2023-06-17T04:49:59.041Z,41.93
2023-06-17T04:50:59.026Z,42.05
2023-06-17T04:51:59.029Z,42.01
2023-06-17T04:52:59.018Z,41.98
2023-06-17T04:53:59.028Z,41.95
2023-06-17T04:54:59.023Z,41.91
2023-06-17T04:55:59.043Z,41.93
2023-06-17T04:56:59.078Z,41.90
2023-06-17T04:57:59.066Z,42.05
2023-06-17T04:58:59.089Z,42.11
2023-06-17T04:59:59.112Z,42.14
2023-06-17T05:00:59.159Z,42.13
2023-06-17T05:01:59.080Z,42.22
2023-06-17T05:02:59.272Z,42.15
2023-06-17T05:03:59.166Z,41.80
2023-06-17T05:04:59.112Z,41.69
2023-06-17T05:05:59.073Z,41.82
2023-06-17T05:06:59.119Z,41.72
2023-06-17T05:07:59.150Z,41.71
2023-06-17T05:08:59.152Z,41.46
2023-06-17T05:09:59.188Z,41.77
2023-06-17T05:10:59.197Z,41.80
2023-06-17T05:11:59.222Z,41.85
2023-06-17T05:12:59.233Z,42.01
2023-06-17T05:13:59.241Z,41.92
2023-06-17T05:14:59.268Z,41.95
2023-06-17T05:15:59.300Z,41.92
2023-06-17T05:16:59.356Z,42.03
2023-06-17T05:17:59.406Z,42.08
2023-06-17T05:18:59.366Z,42.01
2023-06-17T05:19:59.355Z,41.98
2023-06-17T05:20:59.389Z,42.09
2023-06-17T05:21:59.422Z,42.02
2023-06-17T05:22:59.445Z,41.96
2023-06-17T05:24:01.916Z,42.12
2023-06-17T05:24:59.439Z,42.20
2023-06-17T05:25:59.454Z,42.09
2023-06-17T05:26:59.438Z,42.18
2023-06-17T05:27:59.442Z,41.98
2023-06-17T05:28:59.444Z,42.23
2023-06-17T05:29:59.421Z,42.12
2023-06-17T05:30:59.454Z,42.06
2023-06-17T05:31:59.406Z,42.01
2023-06-17T05:32:59.449Z,42.00
2023-06-17T05:33:59.391Z,42.05
2023-06-17T05:34:59.391Z,42.16
2023-06-17T05:35:59.339Z,42.16
2023-06-17T05:36:59.352Z,42.40
2023-06-17T05:37:59.335Z,42.39
2023-06-17T05:38:59.348Z,42.59
2023-06-17T05:39:59.322Z,42.30
2023-06-17T05:40:59.312Z,42.22
2023-06-17T05:41:59.293Z,42.26
2023-06-17T05:42:59.300Z,42.53
2023-06-17T05:43:59.301Z,42.48
2023-06-17T05:44:59.285Z,42.45
2023-06-17T05:45:59.334Z,42.57
2023-06-17T05:46:59.300Z,42.65
2023-06-17T05:47:59.285Z,48.61
2023-06-17T05:48:59.271Z,43.93
2023-06-17T05:49:59.264Z,43.28
2023-06-17T05:50:59.249Z,42.79
2023-06-17T05:51:59.262Z,42.35
2023-06-17T05:52:59.251Z,42.53
2023-06-17T05:53:59.240Z,41.93
2023-06-17T05:54:59.266Z,41.88
2023-06-17T05:55:59.228Z,41.88
2023-06-17T05:56:59.239Z,41.58
2023-06-17T05:57:59.205Z,41.66
2023-06-17T05:58:59.224Z,41.94
2023-06-17T05:59:59.186Z,41.95
2023-06-17T06:00:59.198Z,42.04
2023-06-17T06:01:59.202Z,41.83
2023-06-17T06:02:59.232Z,42.05
2023-06-17T06:03:59.332Z,41.98
2023-06-17T06:04:59.136Z,41.96
2023-06-17T06:05:59.165Z,42.00
2023-06-17T06:06:59.148Z,41.98
2023-06-17T06:07:59.133Z,41.97
2023-06-17T06:08:59.133Z,41.94
2023-06-17T06:09:59.132Z,41.95
2023-06-17T06:10:59.128Z,41.91
2023-06-17T06:11:59.077Z,41.90
2023-06-17T06:12:59.106Z,41.87
2023-06-17T06:13:59.100Z,41.84
2023-06-17T06:14:59.087Z,41.85
2023-06-17T06:15:59.185Z,41.86
2023-06-17T06:16:59.139Z,41.85
2023-06-17T06:17:59.179Z,41.86
2023-06-17T06:18:59.224Z,41.83
2023-06-17T06:19:59.354Z,41.80
2023-06-17T06:20:59.329Z,41.81
2023-06-17T06:21:59.312Z,41.80
2023-06-17T06:22:59.332Z,41.77
2023-06-17T06:23:59.399Z,41.77
2023-06-17T06:24:59.422Z,41.80
2023-06-17T06:25:59.403Z,41.78
2023-06-17T06:26:59.445Z,41.76
2023-06-17T06:27:59.485Z,41.75
2023-06-17T06:28:59.472Z,41.74
2023-06-17T06:29:59.511Z,41.72
2023-06-17T06:30:59.583Z,41.78
2023-06-17T06:31:59.550Z,41.74
2023-06-17T06:32:59.642Z,41.71
2023-06-17T06:33:59.627Z,41.71
2023-06-17T06:34:59.630Z,41.70
2023-06-17T06:35:59.650Z,41.66
2023-06-17T06:36:59.685Z,41.66
2023-06-17T06:37:59.665Z,41.69
2023-06-17T06:38:59.701Z,41.60
2023-06-17T06:39:59.760Z,41.65
2023-06-17T06:40:59.757Z,41.68
2023-06-17T06:41:59.764Z,41.65
2023-06-17T06:42:59.808Z,41.65
2023-06-17T06:43:59.865Z,41.62
2023-06-17T06:44:59.846Z,41.65
2023-06-17T06:45:59.909Z,41.65
2023-06-17T06:46:59.850Z,41.62
2023-06-17T06:47:59.897Z,41.64
2023-06-17T06:48:59.898Z,41.64
2023-06-17T06:49:59.947Z,41.61
2023-06-17T06:50:59.941Z,41.60
2023-06-17T06:51:59.942Z,41.58
2023-06-17T06:53:00.004Z,41.60
2023-06-17T06:54:00.040Z,41.62
2023-06-17T06:55:00.011Z,41.58
2023-06-17T06:56:00.064Z,41.62
2023-06-17T06:57:00.054Z,41.61
2023-06-17T06:58:00.106Z,41.64
2023-06-17T06:59:00.123Z,41.60
2023-06-17T07:00:00.134Z,41.61
2023-06-17T07:01:00.315Z,41.55
2023-06-17T07:02:00.182Z,41.56
2023-06-17T07:03:00.271Z,41.55
2023-06-17T07:04:00.229Z,41.64
2023-06-17T07:05:00.303Z,41.54
2023-06-17T07:06:00.221Z,41.57
2023-06-17T07:07:00.230Z,41.57
2023-06-17T07:08:00.275Z,41.52
2023-06-17T07:09:00.280Z,41.55
2023-06-17T07:10:00.369Z,41.57
2023-06-17T07:11:00.316Z,41.49
2023-06-17T07:12:00.375Z,41.49
2023-06-17T07:13:00.388Z,41.54
2023-06-17T07:14:00.377Z,41.57
2023-06-17T07:15:00.395Z,41.50
2023-06-17T07:16:00.441Z,41.53
2023-06-17T07:17:00.441Z,41.51
2023-06-17T07:18:00.529Z,41.50
2023-06-17T07:19:00.494Z,41.51
2023-06-17T07:20:00.518Z,41.51
2023-06-17T07:21:00.512Z,41.51
2023-06-17T07:22:00.558Z,41.53
2023-06-17T07:23:00.565Z,41.50
2023-06-17T07:24:00.680Z,41.48
2023-06-17T07:25:00.595Z,41.50
2023-06-17T07:26:00.598Z,41.47
2023-06-17T07:27:00.628Z,41.49
2023-06-17T07:28:00.654Z,41.47
2023-06-17T07:29:00.650Z,41.43
2023-06-17T07:30:00.650Z,41.49
2023-06-17T07:31:00.770Z,41.47
2023-06-17T07:32:00.669Z,41.47
2023-06-17T07:33:00.708Z,41.47
2023-06-17T07:34:00.828Z,41.47
2023-06-17T07:35:00.739Z,41.43
2023-06-17T07:36:00.707Z,41.50
2023-06-17T07:37:00.726Z,41.49
2023-06-17T07:38:00.752Z,41.44
2023-06-17T07:39:00.768Z,41.47
2023-06-17T07:40:00.766Z,41.44
2023-06-17T07:41:00.822Z,41.46
2023-06-17T07:42:00.813Z,41.44
2023-06-17T07:43:00.823Z,41.46
2023-06-17T07:44:00.831Z,41.44
2023-06-17T07:45:00.854Z,41.46
2023-06-17T07:46:00.956Z,41.43
2023-06-17T07:47:00.889Z,41.47
2023-06-17T07:48:00.964Z,41.47
2023-06-17T07:49:00.930Z,41.50
2023-06-17T07:50:00.942Z,41.44
2023-06-17T07:51:00.958Z,41.42
2023-06-17T07:52:00.972Z,41.40
2023-06-17T07:53:00.959Z,41.40
2023-06-17T07:54:00.971Z,41.41
2023-06-17T07:55:00.980Z,41.43
2023-06-17T07:56:00.993Z,41.39
2023-06-17T07:57:01.024Z,41.43
2023-06-17T07:58:01.001Z,41.42
2023-06-17T07:59:01.025Z,41.37
2023-06-17T08:00:01.009Z,41.42
2023-06-17T08:01:01.037Z,41.37
2023-06-17T08:02:01.102Z,41.39
2023-06-17T08:03:01.132Z,41.39
2023-06-17T08:04:01.103Z,41.38
2023-06-17T08:05:01.074Z,41.34
2023-06-17T08:06:01.084Z,41.37
2023-06-17T08:07:01.092Z,41.39
2023-06-17T08:08:01.086Z,41.42
2023-06-17T08:09:01.119Z,41.39
2023-06-17T08:10:01.116Z,41.36
2023-06-17T08:11:01.134Z,41.40
2023-06-17T08:12:01.143Z,41.31
2023-06-17T08:13:01.164Z,41.37
2023-06-17T08:14:01.206Z,41.40
2023-06-17T08:15:01.191Z,41.36
2023-06-17T08:16:01.329Z,41.36
2023-06-17T08:17:01.217Z,41.36
2023-06-17T08:18:01.273Z,41.39
2023-06-17T08:19:01.261Z,41.35
2023-06-17T08:20:01.247Z,41.36
2023-06-17T08:21:01.253Z,41.35
2023-06-17T08:22:01.271Z,41.34
2023-06-17T08:23:01.268Z,41.33
2023-06-17T08:24:01.265Z,41.33
2023-06-17T08:25:01.322Z,41.33
2023-06-17T08:26:01.292Z,41.31
2023-06-17T08:27:01.298Z,41.29
2023-06-17T08:28:01.311Z,41.33
2023-06-17T08:29:01.321Z,41.35
2023-06-17T08:30:01.316Z,41.33
2023-06-17T08:31:01.315Z,41.33
2023-06-17T08:32:01.334Z,41.33
2023-06-17T08:33:01.404Z,41.33
2023-06-17T08:34:01.354Z,41.32
2023-06-17T08:35:01.359Z,41.36
2023-06-17T08:36:01.373Z,41.31
2023-06-17T08:37:01.380Z,41.33
2023-06-17T08:38:01.403Z,41.27
2023-06-17T08:39:01.387Z,41.29
2023-06-17T08:40:01.386Z,41.30
2023-06-17T08:41:01.404Z,41.32
2023-06-17T08:42:01.424Z,41.30
2023-06-17T08:43:01.416Z,41.30
2023-06-17T08:44:01.432Z,41.30
2023-06-17T08:45:01.489Z,41.32
2023-06-17T08:46:01.525Z,41.27
2023-06-17T08:47:01.460Z,41.32
2023-06-17T08:48:01.536Z,41.26
2023-06-17T08:49:01.483Z,41.30
2023-06-17T08:50:01.481Z,41.30
2023-06-17T08:51:01.474Z,41.27
2023-06-17T08:52:01.489Z,41.26
2023-06-17T08:53:01.505Z,41.28
2023-06-17T08:54:01.506Z,41.27
2023-06-17T08:55:01.501Z,41.29
2023-06-17T08:56:01.545Z,41.27
2023-06-17T08:57:01.515Z,41.26
2023-06-17T08:58:01.537Z,41.26
2023-06-17T08:59:01.569Z,41.26
2023-06-17T09:00:01.573Z,41.24
2023-06-17T09:01:01.576Z,41.26
2023-06-17T09:02:01.577Z,41.24
2023-06-17T09:03:01.655Z,41.26
2023-06-17T09:04:01.613Z,41.23
2023-06-17T09:05:01.632Z,41.27
2023-06-17T09:06:01.584Z,41.23
2023-06-17T09:07:01.592Z,41.26
2023-06-17T09:08:01.655Z,41.26
2023-06-17T09:09:01.599Z,41.23
2023-06-17T09:10:01.605Z,41.19
2023-06-17T09:11:01.586Z,41.22
2023-06-17T09:12:01.622Z,41.20
2023-06-17T09:13:01.573Z,41.24
2023-06-17T09:14:01.654Z,41.20
2023-06-17T09:15:01.620Z,41.21
2023-06-17T09:16:01.579Z,41.22
2023-06-17T09:17:01.615Z,41.20
2023-06-17T09:18:01.643Z,41.15
2023-06-17T09:19:01.606Z,41.20
2023-06-17T09:20:01.609Z,41.15
2023-06-17T09:21:01.615Z,41.19
2023-06-17T09:22:01.602Z,41.22
2023-06-17T09:23:01.594Z,41.18
2023-06-17T09:24:01.639Z,41.18
2023-06-17T09:25:01.604Z,41.14
2023-06-17T09:26:01.585Z,41.16
2023-06-17T09:27:01.589Z,41.15
2023-06-17T09:29:01.611Z,41.21
2023-06-17T09:30:01.597Z,41.19
2023-06-17T09:31:01.579Z,41.15
2023-06-17T09:32:01.638Z,41.18
2023-06-17T09:33:01.616Z,41.17
2023-06-17T09:34:01.577Z,41.16
2023-06-17T09:35:01.544Z,41.18
2023-06-17T09:36:01.580Z,41.12
2023-06-17T09:37:01.823Z,41.17
2023-06-17T09:38:03.959Z,41.22
2023-06-17T09:39:01.542Z,41.18
2023-06-17T09:40:01.570Z,41.18
2023-06-17T09:41:01.466Z,41.12
2023-06-17T09:42:01.498Z,41.15
2023-06-17T09:43:16.578Z,41.15
2023-06-17T09:44:02.484Z,41.16
2023-06-17T09:45:01.495Z,41.18
2023-06-17T09:46:01.806Z,41.18
2023-06-17T09:47:01.507Z,41.12
2023-06-17T09:48:01.508Z,41.20
2023-06-17T09:49:01.419Z,41.14
2023-06-17T09:50:01.458Z,41.12
2023-06-17T09:51:01.435Z,41.14
2023-06-17T09:52:01.421Z,41.14
2023-06-17T09:53:01.425Z,41.17
2023-06-17T09:54:01.417Z,41.14
2023-06-17T09:55:01.414Z,41.18
2023-06-17T09:56:01.680Z,41.12
2023-06-17T09:57:01.391Z,41.15
2023-06-17T09:58:01.361Z,41.15
2023-06-17T09:59:01.353Z,41.14
2023-06-17T10:00:01.338Z,41.12
2023-06-17T10:01:01.350Z,41.14
2023-06-17T10:02:01.355Z,41.14
2023-06-17T10:03:01.374Z,41.15
2023-06-17T10:04:01.479Z,41.11
2023-06-17T10:05:01.323Z,41.14
2023-06-17T10:06:01.312Z,41.14
2023-06-17T10:07:01.364Z,41.08
2023-06-17T10:08:01.292Z,41.08
2023-06-17T10:09:01.307Z,41.06
2023-06-17T10:10:01.318Z,41.14
2023-06-17T10:11:01.417Z,41.08
2023-06-17T10:12:01.260Z,41.09
2023-06-17T10:13:01.268Z,41.05
2023-06-17T10:14:01.265Z,41.07
2023-06-17T10:15:01.239Z,41.10
2023-06-17T10:16:01.214Z,41.10
2023-06-17T10:17:01.258Z,41.13
2023-06-17T10:18:01.262Z,41.08
2023-06-17T10:19:01.229Z,41.07
2023-06-17T10:20:01.223Z,41.07
2023-06-17T10:21:01.417Z,41.08
2023-06-17T10:22:01.198Z,41.05
2023-06-17T10:23:01.196Z,41.04
2023-06-17T10:24:01.235Z,41.09
2023-06-17T10:25:01.162Z,41.12
2023-06-17T10:26:01.132Z,41.02
2023-06-17T10:27:01.151Z,41.09
2023-06-17T10:28:01.170Z,41.08
2023-06-17T10:29:01.132Z,41.09
2023-06-17T10:30:01.154Z,41.05
2023-06-17T10:31:01.115Z,41.04
2023-06-17T10:32:01.116Z,41.07
2023-06-17T10:33:01.139Z,41.09
2023-06-17T10:34:01.104Z,41.06
2023-06-17T10:35:01.119Z,41.08
2023-06-17T10:36:01.152Z,41.07
2023-06-17T10:37:01.080Z,41.02
2023-06-17T10:38:01.057Z,41.07
2023-06-17T10:39:01.063Z,41.09
2023-06-17T10:40:01.045Z,41.04
2023-06-17T10:41:01.112Z,41.01
2023-06-17T10:42:01.106Z,41.02
2023-06-17T10:43:01.051Z,41.03
2023-06-17T10:44:01.036Z,41.05
2023-06-17T10:45:01.043Z,41.03
2023-06-17T10:46:01.099Z,41.02
2023-06-17T10:47:01.017Z,41.03
2023-06-17T10:48:01.000Z,41.04
2023-06-17T10:49:00.988Z,41.00
2023-06-17T10:50:00.961Z,41.03
2023-06-17T10:51:00.971Z,41.01
2023-06-17T10:52:00.967Z,41.04
2023-06-17T10:53:00.991Z,41.00
2023-06-17T10:54:00.940Z,41.01
2023-06-17T10:55:00.933Z,41.03
2023-06-17T10:56:00.910Z,41.01
2023-06-17T10:57:00.942Z,41.04
2023-06-17T10:58:00.911Z,41.01
2023-06-17T10:59:00.911Z,41.01
2023-06-17T11:00:00.931Z,41.03
2023-06-17T11:01:00.886Z,41.00
2023-06-17T11:02:00.936Z,41.00
2023-06-17T11:03:00.940Z,40.98
2023-06-17T11:04:00.929Z,41.03
2023-06-17T11:05:00.871Z,41.03
2023-06-17T11:06:00.854Z,41.04
2023-06-17T11:07:00.868Z,41.01
2023-06-17T11:08:00.850Z,41.05
2023-06-17T11:09:00.837Z,41.01
2023-06-17T11:10:00.880Z,41.00
2023-06-17T11:11:00.814Z,40.98
2023-06-17T11:12:00.815Z,41.01
2023-06-17T11:13:00.795Z,41.04
2023-06-17T11:14:00.800Z,40.97
2023-06-17T11:15:00.874Z,41.00
2023-06-17T11:16:00.770Z,40.99
2023-06-17T11:17:00.843Z,41.01
2023-06-17T11:18:00.828Z,41.00
2023-06-17T11:19:00.778Z,40.97
2023-06-17T11:20:00.769Z,40.99
2023-06-17T11:21:00.741Z,41.03
2023-06-17T11:22:00.740Z,41.00
2023-06-17T11:23:00.741Z,41.00
2023-06-17T11:24:00.746Z,40.97
2023-06-17T11:25:00.749Z,40.95
2023-06-17T11:26:00.708Z,40.99
2023-06-17T11:27:00.720Z,40.93
2023-06-17T11:28:00.698Z,40.97
2023-06-17T11:29:00.701Z,40.97
2023-06-17T11:30:00.778Z,40.98
2023-06-17T11:31:00.688Z,40.95
2023-06-17T11:32:00.681Z,40.99
2023-06-17T11:33:00.735Z,40.94
2023-06-17T11:34:00.655Z,40.99
2023-06-17T11:35:00.667Z,40.93
2023-06-17T11:36:00.659Z,40.97
2023-06-17T11:37:00.634Z,40.91
2023-06-17T11:38:00.646Z,40.93
2023-06-17T11:39:00.614Z,40.96
2023-06-17T11:40:00.666Z,40.88
2023-06-17T11:41:00.633Z,40.93
2023-06-17T11:42:00.623Z,40.96
2023-06-17T11:43:00.586Z,40.93
2023-06-17T11:44:00.586Z,40.93
2023-06-17T11:45:00.611Z,40.91
2023-06-17T11:46:00.678Z,40.91
2023-06-17T11:47:00.578Z,40.93
2023-06-17T11:48:00.630Z,40.87
2023-06-17T11:49:00.647Z,40.91
2023-06-17T11:50:00.672Z,40.87
2023-06-17T11:51:00.635Z,40.92
2023-06-17T11:52:00.686Z,40.89
2023-06-17T11:53:00.709Z,40.88
2023-06-17T11:54:00.705Z,40.90
2023-06-17T11:55:00.757Z,40.87
2023-06-17T11:56:00.747Z,40.92
2023-06-17T11:57:00.733Z,40.90
2023-06-17T11:58:00.773Z,40.86
2023-06-17T11:59:00.751Z,40.93
2023-06-17T12:00:00.768Z,40.88
2023-06-17T12:01:00.798Z,40.89
2023-06-17T12:02:00.822Z,40.90
2023-06-17T12:03:00.952Z,40.88
2023-06-17T12:04:00.894Z,40.86
2023-06-17T12:05:00.866Z,40.92
2023-06-17T12:06:00.894Z,40.87
2023-06-17T12:07:00.933Z,40.86
2023-06-17T12:08:00.918Z,40.87
2023-06-17T12:09:00.976Z,40.89
2023-06-17T12:10:00.992Z,40.84
2023-06-17T12:11:00.999Z,40.83
2023-06-17T12:12:01.035Z,40.90
2023-06-17T12:13:01.036Z,40.90
2023-06-17T12:14:01.085Z,40.84
2023-06-17T12:15:07.423Z,40.83
2023-06-17T12:16:02.087Z,40.89
2023-06-17T12:17:01.066Z,40.85
2023-06-17T12:18:01.171Z,40.83
2023-06-17T12:19:01.074Z,40.83
2023-06-17T12:20:01.079Z,40.79
2023-06-17T12:21:01.023Z,40.88
2023-06-17T12:22:01.030Z,40.80
2023-06-17T12:23:01.056Z,40.82
2023-06-17T12:24:01.046Z,40.84
2023-06-17T12:25:01.018Z,40.77
2023-06-17T12:26:01.025Z,40.82
2023-06-17T12:27:01.013Z,40.80
2023-06-17T12:28:01.003Z,40.80
2023-06-17T12:29:03.446Z,40.80
2023-06-17T12:30:01.965Z,40.82
2023-06-17T12:31:00.965Z,40.85
2023-06-17T12:32:00.929Z,40.79
2023-06-17T12:33:00.995Z,40.79
2023-06-17T12:34:00.967Z,40.78
2023-06-17T12:35:00.918Z,40.80
2023-06-17T12:36:00.921Z,40.83
2023-06-17T12:37:00.903Z,40.79
2023-06-17T12:38:00.934Z,40.80
2023-06-17T12:39:00.909Z,40.76
2023-06-17T12:40:00.932Z,40.78
2023-06-17T12:41:00.881Z,40.79
2023-06-17T12:42:00.859Z,40.76
2023-06-17T12:43:00.888Z,40.76
2023-06-17T12:44:00.927Z,40.80
2023-06-17T12:45:00.969Z,40.76
2023-06-17T12:46:01.120Z,40.78
2023-06-17T12:47:01.072Z,40.80
2023-06-17T12:48:01.145Z,40.74
2023-06-17T12:49:01.193Z,40.79
2023-06-17T12:50:01.191Z,40.72
2023-06-17T12:51:01.238Z,40.76
2023-06-17T12:52:01.258Z,40.75
2023-06-17T12:53:01.327Z,40.78
2023-06-17T12:54:01.373Z,40.77